sensor_id;sensor_type;location;lat;lon;timestamp;P1;durP1;ratioP1;P2;durP2;ratioP2
912;SDS011;443;51.448;7.028;2022-09-21T00:01:51;2.40;;;2.13;;
912;SDS011;443;51.448;7.028;2022-09-21T00:04:18;4.43;;;2.40;;
912;SDS011;443;51.448;7.028;2022-09-21T00:06:44;3.20;;;1.67;;
912;SDS011;443;51.448;7.028;2022-09-21T00:09:11;2.40;;;2.20;;
912;SDS011;443;51.448;7.028;2022-09-21T00:11:38;3.23;;;2.20;;
912;SDS011;443;51.448;7.028;2022-09-21T00:14:06;4.97;;;2.23;;
912;SDS011;443;51.448;7.028;2022-09-21T00:16:35;2.40;;;1.97;;
912;SDS011;443;51.448;7.028;2022-09-21T00:19:03;6.83;;;3.03;;
912;SDS011;443;51.448;7.028;2022-09-21T00:21:30;2.20;;;2.00;;
912;SDS011;443;51.448;7.028;2022-09-21T00:23:58;2.63;;;2.43;;
912;SDS011;443;51.448;7.028;2022-09-21T00:26:26;2.93;;;2.30;;
912;SDS011;443;51.448;7.028;2022-09-21T00:28:54;3.17;;;2.13;;
912;SDS011;443;51.448;7.028;2022-09-21T00:31:22;3.23;;;2.23;;
912;SDS011;443;51.448;7.028;2022-09-21T00:33:49;3.97;;;2.10;;
912;SDS011;443;51.448;7.028;2022-09-21T00:36:18;5.20;;;2.33;;
912;SDS011;443;51.448;7.028;2022-09-21T00:38:48;2.57;;;1.90;;
912;SDS011;443;51.448;7.028;2022-09-21T00:41:18;2.30;;;1.73;;
912;SDS011;443;51.448;7.028;2022-09-21T00:43:46;3.93;;;2.10;;
912;SDS011;443;51.448;7.028;2022-09-21T00:46:14;2.70;;;2.23;;
912;SDS011;443;51.448;7.028;2022-09-21T00:48:49;2.77;;;2.00;;
912;SDS011;443;51.448;7.028;2022-09-21T00:51:16;2.40;;;1.63;;
912;SDS011;443;51.448;7.028;2022-09-21T00:53:44;3.70;;;2.40;;
912;SDS011;443;51.448;7.028;2022-09-21T00:56:14;2.40;;;1.93;;
912;SDS011;443;51.448;7.028;2022-09-21T00:58:43;2.30;;;1.73;;
912;SDS011;443;51.448;7.028;2022-09-21T01:01:11;3.03;;;2.27;;
912;SDS011;443;51.448;7.028;2022-09-21T01:03:42;2.20;;;1.90;;
912;SDS011;443;51.448;7.028;2022-09-21T01:06:10;5.93;;;3.87;;
912;SDS011;443;51.448;7.028;2022-09-21T01:08:39;2.90;;;1.93;;
912;SDS011;443;51.448;7.028;2022-09-21T01:11:10;5.50;;;1.60;;
912;SDS011;443;51.448;7.028;2022-09-21T01:13:50;7.00;;;2.90;;
912;SDS011;443;51.448;7.028;2022-09-21T01:16:38;3.60;;;2.23;;
912;SDS011;443;51.448;7.028;2022-09-21T01:19:13;3.03;;;1.53;;
912;SDS011;443;51.448;7.028;2022-09-21T01:21:51;3.33;;;2.37;;
912;SDS011;443;51.448;7.028;2022-09-21T01:24:33;1.60;;;1.37;;
912;SDS011;443;51.448;7.028;2022-09-21T01:27:26;4.17;;;2.50;;
912;SDS011;443;51.448;7.028;2022-09-21T01:30:03;7.40;;;2.40;;
912;SDS011;443;51.448;7.028;2022-09-21T01:32:33;4.73;;;2.30;;
912;SDS011;443;51.448;7.028;2022-09-21T01:35:06;4.60;;;2.30;;
912;SDS011;443;51.448;7.028;2022-09-21T01:37:38;2.67;;;1.63;;
912;SDS011;443;51.448;7.028;2022-09-21T01:40:09;3.23;;;1.97;;
912;SDS011;443;51.448;7.028;2022-09-21T01:42:40;1.83;;;1.63;;
912;SDS011;443;51.448;7.028;2022-09-21T01:45:11;2.73;;;2.50;;
912;SDS011;443;51.448;7.028;2022-09-21T01:47:43;2.40;;;1.90;;
912;SDS011;443;51.448;7.028;2022-09-21T01:50:13;6.23;;;1.90;;
912;SDS011;443;51.448;7.028;2022-09-21T01:52:42;3.20;;;2.17;;
912;SDS011;443;51.448;7.028;2022-09-21T01:55:15;3.10;;;2.17;;
912;SDS011;443;51.448;7.028;2022-09-21T01:57:47;2.43;;;1.53;;
912;SDS011;443;51.448;7.028;2022-09-21T02:00:21;2.33;;;1.77;;
912;SDS011;443;51.448;7.028;2022-09-21T02:02:50;4.70;;;1.57;;
912;SDS011;443;51.448;7.028;2022-09-21T02:05:22;2.00;;;1.37;;
912;SDS011;443;51.448;7.028;2022-09-21T02:07:54;4.07;;;3.10;;
912;SDS011;443;51.448;7.028;2022-09-21T02:10:23;1.97;;;1.40;;
912;SDS011;443;51.448;7.028;2022-09-21T02:12:53;2.50;;;1.77;;
912;SDS011;443;51.448;7.028;2022-09-21T02:15:28;2.33;;;1.97;;
912;SDS011;443;51.448;7.028;2022-09-21T02:18:11;4.17;;;2.30;;
912;SDS011;443;51.448;7.028;2022-09-21T02:20:48;2.73;;;1.90;;
912;SDS011;443;51.448;7.028;2022-09-21T02:23:19;2.03;;;1.80;;
912;SDS011;443;51.448;7.028;2022-09-21T02:25:51;3.70;;;2.30;;
912;SDS011;443;51.448;7.028;2022-09-21T02:28:29;2.20;;;1.53;;
912;SDS011;443;51.448;7.028;2022-09-21T02:31:05;2.17;;;2.00;;
912;SDS011;443;51.448;7.028;2022-09-21T02:33:41;2.30;;;1.90;;
912;SDS011;443;51.448;7.028;2022-09-21T02:36:18;3.77;;;1.93;;
912;SDS011;443;51.448;7.028;2022-09-21T02:38:55;4.63;;;1.90;;
912;SDS011;443;51.448;7.028;2022-09-21T02:41:31;2.90;;;1.73;;
912;SDS011;443;51.448;7.028;2022-09-21T02:44:02;2.80;;;1.67;;
912;SDS011;443;51.448;7.028;2022-09-21T02:46:35;1.57;;;1.23;;
912;SDS011;443;51.448;7.028;2022-09-21T02:49:06;1.87;;;1.60;;
912;SDS011;443;51.448;7.028;2022-09-21T02:51:38;3.20;;;1.37;;
912;SDS011;443;51.448;7.028;2022-09-21T02:54:11;2.13;;;1.83;;
912;SDS011;443;51.448;7.028;2022-09-21T02:56:41;3.27;;;1.90;;
912;SDS011;443;51.448;7.028;2022-09-21T02:59:11;1.87;;;1.33;;
912;SDS011;443;51.448;7.028;2022-09-21T03:01:41;3.87;;;2.60;;
912;SDS011;443;51.448;7.028;2022-09-21T03:04:08;1.80;;;1.47;;
912;SDS011;443;51.448;7.028;2022-09-21T03:06:35;2.90;;;1.57;;
912;SDS011;443;51.448;7.028;2022-09-21T03:09:02;2.40;;;2.00;;
912;SDS011;443;51.448;7.028;2022-09-21T03:11:29;3.20;;;1.70;;
912;SDS011;443;51.448;7.028;2022-09-21T03:13:56;2.13;;;1.67;;
912;SDS011;443;51.448;7.028;2022-09-21T03:16:23;3.23;;;2.03;;
912;SDS011;443;51.448;7.028;2022-09-21T03:18:51;3.23;;;2.50;;
912;SDS011;443;51.448;7.028;2022-09-21T03:21:18;1.70;;;1.60;;
912;SDS011;443;51.448;7.028;2022-09-21T03:23:46;3.90;;;2.10;;
912;SDS011;443;51.448;7.028;2022-09-21T03:26:12;1.90;;;1.70;;
912;SDS011;443;51.448;7.028;2022-09-21T03:28:39;3.23;;;1.97;;
912;SDS011;443;51.448;7.028;2022-09-21T03:31:06;2.77;;;1.80;;
912;SDS011;443;51.448;7.028;2022-09-21T03:33:33;5.13;;;1.50;;
912;SDS011;443;51.448;7.028;2022-09-21T03:36:02;3.17;;;1.87;;
912;SDS011;443;51.448;7.028;2022-09-21T03:38:28;2.93;;;1.90;;
912;SDS011;443;51.448;7.028;2022-09-21T03:40:55;2.43;;;2.00;;
912;SDS011;443;51.448;7.028;2022-09-21T03:43:22;1.50;;;1.03;;
912;SDS011;443;51.448;7.028;2022-09-21T03:45:49;1.50;;;1.30;;
912;SDS011;443;51.448;7.028;2022-09-21T03:48:16;12.63;;;2.07;;
912;SDS011;443;51.448;7.028;2022-09-21T03:50:43;3.63;;;2.17;;
912;SDS011;443;51.448;7.028;2022-09-21T03:53:12;1.70;;;1.37;;
912;SDS011;443;51.448;7.028;2022-09-21T03:55:39;2.50;;;1.80;;
912;SDS011;443;51.448;7.028;2022-09-21T03:58:06;4.10;;;1.47;;
912;SDS011;443;51.448;7.028;2022-09-21T04:00:33;2.30;;;1.83;;
912;SDS011;443;51.448;7.028;2022-09-21T04:03:00;6.83;;;2.57;;
912;SDS011;443;51.448;7.028;2022-09-21T04:05:27;2.30;;;1.63;;
912;SDS011;443;51.448;7.028;2022-09-21T04:07:54;1.70;;;1.40;;
912;SDS011;443;51.448;7.028;2022-09-21T04:10:23;3.53;;;1.97;;
912;SDS011;443;51.448;7.028;2022-09-21T04:12:57;2.03;;;1.50;;
912;SDS011;443;51.448;7.028;2022-09-21T04:15:25;2.73;;;1.63;;
912;SDS011;443;51.448;7.028;2022-09-21T04:17:52;3.30;;;1.83;;
912;SDS011;443;51.448;7.028;2022-09-21T04:20:19;1.77;;;1.63;;
912;SDS011;443;51.448;7.028;2022-09-21T04:22:47;3.40;;;1.90;;
912;SDS011;443;51.448;7.028;2022-09-21T04:25:15;3.87;;;2.00;;
912;SDS011;443;51.448;7.028;2022-09-21T04:27:43;1.40;;;1.10;;
912;SDS011;443;51.448;7.028;2022-09-21T04:30:11;1.67;;;1.57;;
912;SDS011;443;51.448;7.028;2022-09-21T04:32:39;3.20;;;1.67;;
912;SDS011;443;51.448;7.028;2022-09-21T04:35:06;3.27;;;1.70;;
912;SDS011;443;51.448;7.028;2022-09-21T04:37:33;3.20;;;2.10;;
912;SDS011;443;51.448;7.028;2022-09-21T04:40:00;1.63;;;1.30;;
912;SDS011;443;51.448;7.028;2022-09-21T04:42:27;6.93;;;1.80;;
912;SDS011;443;51.448;7.028;2022-09-21T04:44:55;3.10;;;1.40;;
912;SDS011;443;51.448;7.028;2022-09-21T04:47:22;3.90;;;1.90;;
912;SDS011;443;51.448;7.028;2022-09-21T04:49:49;2.87;;;2.07;;
912;SDS011;443;51.448;7.028;2022-09-21T04:52:17;2.17;;;1.73;;
912;SDS011;443;51.448;7.028;2022-09-21T04:54:45;2.70;;;1.83;;
912;SDS011;443;51.448;7.028;2022-09-21T04:57:12;2.20;;;1.60;;
912;SDS011;443;51.448;7.028;2022-09-21T04:59:39;2.80;;;1.70;;
912;SDS011;443;51.448;7.028;2022-09-21T05:02:08;1.93;;;1.67;;
912;SDS011;443;51.448;7.028;2022-09-21T05:04:34;1.77;;;1.30;;
912;SDS011;443;51.448;7.028;2022-09-21T05:07:02;2.50;;;1.50;;
912;SDS011;443;51.448;7.028;2022-09-21T05:09:28;2.93;;;2.00;;
912;SDS011;443;51.448;7.028;2022-09-21T05:12:13;2.10;;;1.40;;
912;SDS011;443;51.448;7.028;2022-09-21T05:14:40;2.27;;;2.07;;
912;SDS011;443;51.448;7.028;2022-09-21T05:17:09;8.60;;;2.03;;
912;SDS011;443;51.448;7.028;2022-09-21T05:19:36;3.67;;;2.10;;
912;SDS011;443;51.448;7.028;2022-09-21T05:22:03;1.90;;;1.70;;
912;SDS011;443;51.448;7.028;2022-09-21T05:24:29;5.30;;;2.47;;
912;SDS011;443;51.448;7.028;2022-09-21T05:26:56;3.97;;;2.30;;
912;SDS011;443;51.448;7.028;2022-09-21T05:29:23;2.90;;;1.90;;
912;SDS011;443;51.448;7.028;2022-09-21T05:31:51;5.60;;;2.17;;
912;SDS011;443;51.448;7.028;2022-09-21T05:34:28;2.37;;;1.77;;
912;SDS011;443;51.448;7.028;2022-09-21T05:37:09;2.03;;;1.63;;
912;SDS011;443;51.448;7.028;2022-09-21T05:39:43;2.23;;;1.70;;
912;SDS011;443;51.448;7.028;2022-09-21T05:42:10;2.00;;;1.80;;
912;SDS011;443;51.448;7.028;2022-09-21T05:44:38;3.77;;;2.90;;
912;SDS011;443;51.448;7.028;2022-09-21T05:47:06;8.10;;;2.63;;
912;SDS011;443;51.448;7.028;2022-09-21T05:49:48;4.60;;;2.20;;
912;SDS011;443;51.448;7.028;2022-09-21T05:52:26;2.90;;;2.00;;
912;SDS011;443;51.448;7.028;2022-09-21T05:54:58;2.77;;;2.33;;
912;SDS011;443;51.448;7.028;2022-09-21T05:57:35;3.67;;;2.30;;
912;SDS011;443;51.448;7.028;2022-09-21T06:00:12;3.30;;;2.50;;
912;SDS011;443;51.448;7.028;2022-09-21T06:02:48;4.63;;;2.20;;
912;SDS011;443;51.448;7.028;2022-09-21T06:05:23;8.70;;;2.50;;
912;SDS011;443;51.448;7.028;2022-09-21T06:07:50;5.10;;;2.57;;
912;SDS011;443;51.448;7.028;2022-09-21T06:10:17;3.70;;;2.30;;
912;SDS011;443;51.448;7.028;2022-09-21T06:12:44;3.37;;;2.40;;
912;SDS011;443;51.448;7.028;2022-09-21T06:15:11;3.80;;;2.43;;
912;SDS011;443;51.448;7.028;2022-09-21T06:17:40;10.87;;;3.33;;
912;SDS011;443;51.448;7.028;2022-09-21T06:20:08;5.43;;;2.47;;
912;SDS011;443;51.448;7.028;2022-09-21T06:22:36;10.23;;;3.70;;
912;SDS011;443;51.448;7.028;2022-09-21T06:25:03;6.20;;;2.17;;
912;SDS011;443;51.448;7.028;2022-09-21T06:27:30;4.90;;;2.50;;
912;SDS011;443;51.448;7.028;2022-09-21T06:29:57;2.40;;;2.17;;
912;SDS011;443;51.448;7.028;2022-09-21T06:32:24;2.87;;;2.23;;
912;SDS011;443;51.448;7.028;2022-09-21T06:34:51;5.00;;;2.50;;
912;SDS011;443;51.448;7.028;2022-09-21T06:37:18;5.27;;;4.50;;
912;SDS011;443;51.448;7.028;2022-09-21T06:39:46;2.50;;;1.87;;
912;SDS011;443;51.448;7.028;2022-09-21T06:42:13;2.53;;;2.20;;
912;SDS011;443;51.448;7.028;2022-09-21T06:44:40;2.80;;;2.10;;
912;SDS011;443;51.448;7.028;2022-09-21T06:47:06;2.97;;;2.00;;
912;SDS011;443;51.448;7.028;2022-09-21T06:49:33;2.90;;;2.30;;
912;SDS011;443;51.448;7.028;2022-09-21T06:52:00;3.37;;;2.40;;
912;SDS011;443;51.448;7.028;2022-09-21T06:54:28;2.90;;;2.27;;
912;SDS011;443;51.448;7.028;2022-09-21T06:56:56;4.00;;;2.83;;
912;SDS011;443;51.448;7.028;2022-09-21T06:59:23;4.03;;;2.53;;
912;SDS011;443;51.448;7.028;2022-09-21T07:01:50;3.47;;;2.03;;
912;SDS011;443;51.448;7.028;2022-09-21T07:04:21;3.37;;;3.00;;
912;SDS011;443;51.448;7.028;2022-09-21T07:06:48;3.30;;;2.50;;
912;SDS011;443;51.448;7.028;2022-09-21T07:09:15;3.00;;;2.13;;
912;SDS011;443;51.448;7.028;2022-09-21T07:11:43;2.10;;;1.90;;
912;SDS011;443;51.448;7.028;2022-09-21T07:14:11;3.33;;;2.30;;
912;SDS011;443;51.448;7.028;2022-09-21T07:16:39;4.60;;;2.60;;
912;SDS011;443;51.448;7.028;2022-09-21T07:19:07;5.90;;;2.90;;
912;SDS011;443;51.448;7.028;2022-09-21T07:21:34;2.90;;;2.53;;
912;SDS011;443;51.448;7.028;2022-09-21T07:24:01;4.90;;;2.87;;
912;SDS011;443;51.448;7.028;2022-09-21T07:26:27;5.47;;;3.00;;
912;SDS011;443;51.448;7.028;2022-09-21T07:28:54;3.90;;;2.60;;
912;SDS011;443;51.448;7.028;2022-09-21T07:31:22;3.20;;;2.73;;
912;SDS011;443;51.448;7.028;2022-09-21T07:33:49;2.87;;;2.57;;
912;SDS011;443;51.448;7.028;2022-09-21T07:36:21;4.23;;;2.87;;
912;SDS011;443;51.448;7.028;2022-09-21T07:38:48;3.73;;;2.30;;
912;SDS011;443;51.448;7.028;2022-09-21T07:41:15;3.87;;;2.57;;
912;SDS011;443;51.448;7.028;2022-09-21T07:43:42;3.00;;;2.30;;
912;SDS011;443;51.448;7.028;2022-09-21T07:46:09;2.87;;;2.37;;
912;SDS011;443;51.448;7.028;2022-09-21T07:48:39;3.33;;;2.27;;
912;SDS011;443;51.448;7.028;2022-09-21T07:51:07;3.10;;;2.80;;
912;SDS011;443;51.448;7.028;2022-09-21T07:53:35;3.20;;;2.63;;
912;SDS011;443;51.448;7.028;2022-09-21T07:56:04;4.43;;;2.80;;
912;SDS011;443;51.448;7.028;2022-09-21T07:58:32;2.67;;;2.40;;
912;SDS011;443;51.448;7.028;2022-09-21T08:01:14;5.50;;;2.30;;
912;SDS011;443;51.448;7.028;2022-09-21T08:03:42;5.83;;;2.10;;
912;SDS011;443;51.448;7.028;2022-09-21T08:06:09;5.23;;;2.17;;
912;SDS011;443;51.448;7.028;2022-09-21T08:08:36;3.43;;;2.10;;
912;SDS011;443;51.448;7.028;2022-09-21T08:11:03;1.80;;;1.30;;
912;SDS011;443;51.448;7.028;2022-09-21T08:13:31;1.93;;;1.10;;
912;SDS011;443;51.448;7.028;2022-09-21T08:15:58;2.93;;;1.27;;
912;SDS011;443;51.448;7.028;2022-09-21T08:18:25;2.60;;;1.03;;
912;SDS011;443;51.448;7.028;2022-09-21T08:20:54;1.27;;;0.80;;
912;SDS011;443;51.448;7.028;2022-09-21T08:23:21;1.93;;;0.90;;
912;SDS011;443;51.448;7.028;2022-09-21T08:25:50;3.23;;;1.23;;
912;SDS011;443;51.448;7.028;2022-09-21T08:28:16;1.63;;;1.20;;
912;SDS011;443;51.448;7.028;2022-09-21T08:30:43;2.60;;;1.07;;
912;SDS011;443;51.448;7.028;2022-09-21T08:33:10;1.27;;;0.63;;
912;SDS011;443;51.448;7.028;2022-09-21T08:35:37;4.67;;;0.97;;
912;SDS011;443;51.448;7.028;2022-09-21T08:38:05;1.67;;;0.80;;
912;SDS011;443;51.448;7.028;2022-09-21T08:40:32;1.37;;;0.83;;
912;SDS011;443;51.448;7.028;2022-09-21T08:43:00;0.97;;;0.87;;
912;SDS011;443;51.448;7.028;2022-09-21T08:45:31;1.17;;;0.77;;
912;SDS011;443;51.448;7.028;2022-09-21T08:48:01;1.17;;;0.77;;
912;SDS011;443;51.448;7.028;2022-09-21T08:50:32;1.03;;;0.50;;
912;SDS011;443;51.448;7.028;2022-09-21T08:53:03;1.40;;;0.77;;
912;SDS011;443;51.448;7.028;2022-09-21T08:55:36;0.80;;;0.60;;
912;SDS011;443;51.448;7.028;2022-09-21T08:58:04;1.77;;;1.10;;
912;SDS011;443;51.448;7.028;2022-09-21T09:00:40;1.83;;;0.83;;
912;SDS011;443;51.448;7.028;2022-09-21T09:03:17;1.63;;;0.70;;
912;SDS011;443;51.448;7.028;2022-09-21T09:05:54;1.20;;;0.80;;
912;SDS011;443;51.448;7.028;2022-09-21T09:11:19;1.73;;;0.90;;
912;SDS011;443;51.448;7.028;2022-09-21T09:13:57;1.10;;;0.77;;
912;SDS011;443;51.448;7.028;2022-09-21T09:16:39;3.40;;;0.70;;
912;SDS011;443;51.448;7.028;2022-09-21T09:19:18;2.30;;;0.90;;
912;SDS011;443;51.448;7.028;2022-09-21T09:21:52;2.07;;;1.10;;
912;SDS011;443;51.448;7.028;2022-09-21T09:24:27;5.10;;;1.17;;
912;SDS011;443;51.448;7.028;2022-09-21T09:26:59;2.73;;;0.80;;
912;SDS011;443;51.448;7.028;2022-09-21T09:29:32;2.50;;;1.17;;
912;SDS011;443;51.448;7.028;2022-09-21T09:32:08;1.87;;;1.03;;
912;SDS011;443;51.448;7.028;2022-09-21T09:34:39;1.40;;;0.73;;
912;SDS011;443;51.448;7.028;2022-09-21T09:37:09;1.50;;;0.73;;
912;SDS011;443;51.448;7.028;2022-09-21T09:39:39;3.37;;;0.93;;
912;SDS011;443;51.448;7.028;2022-09-21T09:42:12;1.23;;;0.63;;
912;SDS011;443;51.448;7.028;2022-09-21T09:47:46;4.33;;;0.97;;
912;SDS011;443;51.448;7.028;2022-09-21T09:50:23;3.00;;;1.10;;
912;SDS011;443;51.448;7.028;2022-09-21T09:52:54;4.87;;;1.23;;
912;SDS011;443;51.448;7.028;2022-09-21T09:55:30;0.93;;;0.50;;
912;SDS011;443;51.448;7.028;2022-09-21T09:58:01;3.57;;;0.80;;
912;SDS011;443;51.448;7.028;2022-09-21T10:00:28;4.27;;;1.20;;
912;SDS011;443;51.448;7.028;2022-09-21T10:02:56;1.90;;;0.97;;
912;SDS011;443;51.448;7.028;2022-09-21T10:05:24;4.13;;;0.97;;
912;SDS011;443;51.448;7.028;2022-09-21T10:07:57;1.30;;;0.50;;
912;SDS011;443;51.448;7.028;2022-09-21T10:10:35;0.80;;;0.60;;
912;SDS011;443;51.448;7.028;2022-09-21T10:13:08;1.23;;;0.63;;
912;SDS011;443;51.448;7.028;2022-09-21T10:15:39;0.90;;;0.60;;
912;SDS011;443;51.448;7.028;2022-09-21T10:18:13;0.93;;;0.50;;
912;SDS011;443;51.448;7.028;2022-09-21T10:20:52;0.70;;;0.50;;
912;SDS011;443;51.448;7.028;2022-09-21T10:23:22;5.33;;;0.90;;
912;SDS011;443;51.448;7.028;2022-09-21T10:25:55;0.97;;;0.70;;
912;SDS011;443;51.448;7.028;2022-09-21T10:28:28;1.57;;;0.83;;
912;SDS011;443;51.448;7.028;2022-09-21T10:31:08;3.60;;;0.70;;
912;SDS011;443;51.448;7.028;2022-09-21T10:33:49;0.80;;;0.60;;
912;SDS011;443;51.448;7.028;2022-09-21T10:36:24;1.37;;;0.70;;
912;SDS011;443;51.448;7.028;2022-09-21T10:38:53;1.00;;;0.67;;
912;SDS011;443;51.448;7.028;2022-09-21T10:41:22;1.07;;;0.80;;
912;SDS011;443;51.448;7.028;2022-09-21T10:43:49;1.63;;;0.60;;
912;SDS011;443;51.448;7.028;2022-09-21T10:46:25;4.57;;;0.90;;
912;SDS011;443;51.448;7.028;2022-09-21T10:48:58;1.27;;;0.77;;
912;SDS011;443;51.448;7.028;2022-09-21T10:51:26;3.93;;;1.37;;
912;SDS011;443;51.448;7.028;2022-09-21T10:53:55;0.90;;;0.53;;
912;SDS011;443;51.448;7.028;2022-09-21T10:56:23;3.07;;;0.73;;
912;SDS011;443;51.448;7.028;2022-09-21T10:59:09;1.20;;;0.60;;
912;SDS011;443;51.448;7.028;2022-09-21T11:01:45;4.00;;;0.73;;
912;SDS011;443;51.448;7.028;2022-09-21T11:04:14;2.10;;;1.00;;
912;SDS011;443;51.448;7.028;2022-09-21T11:06:48;0.80;;;0.50;;
912;SDS011;443;51.448;7.028;2022-09-21T11:09:20;1.97;;;0.97;;
912;SDS011;443;51.448;7.028;2022-09-21T11:11:54;2.00;;;0.70;;
912;SDS011;443;51.448;7.028;2022-09-21T11:14:40;1.10;;;0.60;;
912;SDS011;443;51.448;7.028;2022-09-21T11:17:12;1.30;;;0.90;;
912;SDS011;443;51.448;7.028;2022-09-21T11:19:47;1.10;;;0.87;;
912;SDS011;443;51.448;7.028;2022-09-21T11:22:21;5.50;;;1.00;;
912;SDS011;443;51.448;7.028;2022-09-21T11:24:58;1.50;;;0.70;;
912;SDS011;443;51.448;7.028;2022-09-21T11:27:35;2.97;;;0.70;;
912;SDS011;443;51.448;7.028;2022-09-21T11:30:08;2.10;;;0.73;;
912;SDS011;443;51.448;7.028;2022-09-21T11:32:50;1.30;;;0.70;;
912;SDS011;443;51.448;7.028;2022-09-21T11:35:36;1.20;;;0.70;;
912;SDS011;443;51.448;7.028;2022-09-21T11:38:11;0.60;;;0.40;;
912;SDS011;443;51.448;7.028;2022-09-21T11:40:55;1.43;;;0.70;;
912;SDS011;443;51.448;7.028;2022-09-21T11:43:39;2.50;;;0.50;;
912;SDS011;443;51.448;7.028;2022-09-21T11:46:21;0.90;;;0.47;;
912;SDS011;443;51.448;7.028;2022-09-21T11:48:54;5.43;;;1.23;;
912;SDS011;443;51.448;7.028;2022-09-21T11:51:40;1.47;;;0.70;;
912;SDS011;443;51.448;7.028;2022-09-21T11:54:19;2.83;;;0.70;;
912;SDS011;443;51.448;7.028;2022-09-21T11:57:18;2.33;;;1.10;;
912;SDS011;443;51.448;7.028;2022-09-21T11:59:54;0.90;;;0.60;;
912;SDS011;443;51.448;7.028;2022-09-21T12:02:46;1.80;;;0.60;;
912;SDS011;443;51.448;7.028;2022-09-21T12:05:33;1.60;;;0.60;;
912;SDS011;443;51.448;7.028;2022-09-21T12:08:09;1.30;;;0.63;;
912;SDS011;443;51.448;7.028;2022-09-21T12:10:54;2.33;;;0.60;;
912;SDS011;443;51.448;7.028;2022-09-21T12:13:26;1.57;;;0.67;;
912;SDS011;443;51.448;7.028;2022-09-21T12:16:00;1.60;;;0.70;;
912;SDS011;443;51.448;7.028;2022-09-21T12:18:33;1.10;;;0.67;;
912;SDS011;443;51.448;7.028;2022-09-21T12:21:08;1.27;;;0.80;;
912;SDS011;443;51.448;7.028;2022-09-21T12:23:40;3.90;;;1.07;;
912;SDS011;443;51.448;7.028;2022-09-21T12:26:08;0.80;;;0.60;;
912;SDS011;443;51.448;7.028;2022-09-21T12:28:40;1.10;;;0.50;;
912;SDS011;443;51.448;7.028;2022-09-21T12:31:13;1.07;;;0.70;;
912;SDS011;443;51.448;7.028;2022-09-21T12:33:45;1.10;;;0.60;;
912;SDS011;443;51.448;7.028;2022-09-21T12:36:17;1.77;;;0.53;;
912;SDS011;443;51.448;7.028;2022-09-21T12:38:49;1.77;;;0.70;;
912;SDS011;443;51.448;7.028;2022-09-21T12:41:21;0.90;;;0.43;;
912;SDS011;443;51.448;7.028;2022-09-21T12:43:59;1.33;;;0.77;;
912;SDS011;443;51.448;7.028;2022-09-21T12:46:31;0.80;;;0.47;;
912;SDS011;443;51.448;7.028;2022-09-21T12:49:01;2.20;;;0.50;;
912;SDS011;443;51.448;7.028;2022-09-21T12:51:40;1.67;;;0.60;;
912;SDS011;443;51.448;7.028;2022-09-21T12:54:12;2.80;;;1.03;;
912;SDS011;443;51.448;7.028;2022-09-21T12:56:50;1.87;;;0.60;;
912;SDS011;443;51.448;7.028;2022-09-21T12:59:24;1.00;;;0.60;;
912;SDS011;443;51.448;7.028;2022-09-21T13:02:02;3.10;;;0.60;;
912;SDS011;443;51.448;7.028;2022-09-21T13:04:40;3.43;;;0.73;;
912;SDS011;443;51.448;7.028;2022-09-21T13:07:37;2.93;;;1.00;;
912;SDS011;443;51.448;7.028;2022-09-21T13:10:18;1.10;;;0.50;;
912;SDS011;443;51.448;7.028;2022-09-21T13:12:49;1.73;;;0.50;;
912;SDS011;443;51.448;7.028;2022-09-21T13:15:22;0.90;;;0.50;;
912;SDS011;443;51.448;7.028;2022-09-21T13:17:59;1.63;;;0.80;;
912;SDS011;443;51.448;7.028;2022-09-21T13:20:32;1.00;;;0.60;;
912;SDS011;443;51.448;7.028;2022-09-21T13:23:01;6.33;;;0.80;;
912;SDS011;443;51.448;7.028;2022-09-21T13:25:29;1.30;;;0.70;;
912;SDS011;443;51.448;7.028;2022-09-21T13:28:02;1.60;;;0.60;;
912;SDS011;443;51.448;7.028;2022-09-21T13:30:37;1.43;;;0.50;;
912;SDS011;443;51.448;7.028;2022-09-21T13:36:02;2.13;;;0.67;;
912;SDS011;443;51.448;7.028;2022-09-21T13:38:56;1.17;;;0.60;;
912;SDS011;443;51.448;7.028;2022-09-21T13:41:30;2.30;;;0.70;;
912;SDS011;443;51.448;7.028;2022-09-21T13:44:01;2.00;;;0.70;;
912;SDS011;443;51.448;7.028;2022-09-21T13:49:32;0.93;;;0.70;;
912;SDS011;443;51.448;7.028;2022-09-21T13:52:07;0.90;;;0.50;;
912;SDS011;443;51.448;7.028;2022-09-21T13:54:51;0.80;;;0.57;;
912;SDS011;443;51.448;7.028;2022-09-21T13:57:23;1.57;;;0.87;;
912;SDS011;443;51.448;7.028;2022-09-21T14:02:57;0.90;;;0.47;;
912;SDS011;443;51.448;7.028;2022-09-21T14:05:30;1.43;;;1.23;;
912;SDS011;443;51.448;7.028;2022-09-21T14:08:01;1.33;;;0.70;;
912;SDS011;443;51.448;7.028;2022-09-21T14:10:32;1.70;;;0.90;;
912;SDS011;443;51.448;7.028;2022-09-21T14:13:00;2.30;;;0.80;;
912;SDS011;443;51.448;7.028;2022-09-21T14:15:34;2.30;;;0.60;;
912;SDS011;443;51.448;7.028;2022-09-21T14:18:07;2.60;;;0.90;;
912;SDS011;443;51.448;7.028;2022-09-21T14:27:05;1.13;;;0.70;;
912;SDS011;443;51.448;7.028;2022-09-21T14:29:43;5.40;;;1.30;;
912;SDS011;443;51.448;7.028;2022-09-21T14:32:14;0.60;;;0.47;;
912;SDS011;443;51.448;7.028;2022-09-21T14:34:44;2.10;;;1.13;;
912;SDS011;443;51.448;7.028;2022-09-21T14:37:21;0.70;;;0.50;;
912;SDS011;443;51.448;7.028;2022-09-21T14:39:53;3.23;;;0.80;;
912;SDS011;443;51.448;7.028;2022-09-21T14:42:22;1.20;;;0.70;;
912;SDS011;443;51.448;7.028;2022-09-21T14:44:54;1.80;;;0.67;;
912;SDS011;443;51.448;7.028;2022-09-21T14:47:27;1.20;;;0.63;;
912;SDS011;443;51.448;7.028;2022-09-21T14:50:09;0.70;;;0.50;;
912;SDS011;443;51.448;7.028;2022-09-21T14:53:06;0.87;;;0.53;;
912;SDS011;443;51.448;7.028;2022-09-21T14:56:00;0.87;;;0.70;;
912;SDS011;443;51.448;7.028;2022-09-21T14:58:56;5.90;;;1.73;;
912;SDS011;443;51.448;7.028;2022-09-21T15:01:35;1.00;;;0.57;;
912;SDS011;443;51.448;7.028;2022-09-21T15:07:30;0.70;;;0.50;;
912;SDS011;443;51.448;7.028;2022-09-21T15:10:26;1.40;;;0.80;;
912;SDS011;443;51.448;7.028;2022-09-21T15:13:16;1.00;;;0.60;;
912;SDS011;443;51.448;7.028;2022-09-21T15:15:58;3.87;;;0.90;;
912;SDS011;443;51.448;7.028;2022-09-21T15:18:38;1.00;;;0.70;;
912;SDS011;443;51.448;7.028;2022-09-21T15:21:15;1.33;;;0.60;;
912;SDS011;443;51.448;7.028;2022-09-21T15:23:48;1.10;;;0.50;;
912;SDS011;443;51.448;7.028;2022-09-21T15:26:18;2.40;;;0.77;;
912;SDS011;443;51.448;7.028;2022-09-21T15:28:48;2.50;;;0.80;;
912;SDS011;443;51.448;7.028;2022-09-21T15:31:18;1.63;;;0.60;;
912;SDS011;443;51.448;7.028;2022-09-21T15:33:45;2.57;;;0.70;;
912;SDS011;443;51.448;7.028;2022-09-21T15:36:18;0.90;;;0.47;;
912;SDS011;443;51.448;7.028;2022-09-21T15:38:46;0.87;;;0.67;;
912;SDS011;443;51.448;7.028;2022-09-21T15:41:25;2.30;;;0.60;;
912;SDS011;443;51.448;7.028;2022-09-21T15:44:05;1.10;;;0.80;;
912;SDS011;443;51.448;7.028;2022-09-21T15:46:39;4.40;;;0.80;;
912;SDS011;443;51.448;7.028;2022-09-21T15:49:12;1.47;;;1.20;;
912;SDS011;443;51.448;7.028;2022-09-21T15:51:41;1.10;;;0.73;;
912;SDS011;443;51.448;7.028;2022-09-21T15:54:14;1.07;;;0.70;;
912;SDS011;443;51.448;7.028;2022-09-21T15:56:52;2.57;;;0.90;;
912;SDS011;443;51.448;7.028;2022-09-21T15:59:19;0.70;;;0.47;;
912;SDS011;443;51.448;7.028;2022-09-21T16:01:47;2.30;;;0.97;;
912;SDS011;443;51.448;7.028;2022-09-21T16:04:18;1.30;;;0.50;;
912;SDS011;443;51.448;7.028;2022-09-21T16:06:47;0.90;;;0.47;;
912;SDS011;443;51.448;7.028;2022-09-21T16:09:36;1.23;;;0.70;;
912;SDS011;443;51.448;7.028;2022-09-21T16:15:04;1.13;;;0.73;;
912;SDS011;443;51.448;7.028;2022-09-21T16:17:36;0.70;;;0.50;;
912;SDS011;443;51.448;7.028;2022-09-21T16:20:14;3.23;;;0.70;;
912;SDS011;443;51.448;7.028;2022-09-21T16:22:44;1.10;;;0.60;;
912;SDS011;443;51.448;7.028;2022-09-21T16:25:17;1.40;;;0.90;;
912;SDS011;443;51.448;7.028;2022-09-21T16:27:58;8.03;;;1.53;;
912;SDS011;443;51.448;7.028;2022-09-21T16:30:36;2.20;;;0.80;;
912;SDS011;443;51.448;7.028;2022-09-21T16:33:33;1.43;;;0.80;;
912;SDS011;443;51.448;7.028;2022-09-21T16:39:15;1.10;;;0.77;;
912;SDS011;443;51.448;7.028;2022-09-21T16:41:44;2.20;;;0.97;;
912;SDS011;443;51.448;7.028;2022-09-21T16:44:15;3.43;;;2.57;;
912;SDS011;443;51.448;7.028;2022-09-21T16:46:47;1.47;;;0.77;;